createdAt,value
2017-01-14T00:00:25.098Z,0
2017-01-14T00:01:25.143Z,0
2017-01-14T00:02:25.209Z,0
2017-01-14T00:03:25.254Z,0
2017-01-14T00:04:25.311Z,0
2017-01-14T00:05:25.368Z,0
2017-01-14T00:06:25.433Z,0
2017-01-14T00:07:25.484Z,0
2017-01-14T00:08:25.542Z,0
2017-01-14T00:09:25.602Z,0
2017-01-14T00:10:25.649Z,0
2017-01-14T00:11:25.721Z,0
2017-01-14T00:12:25.767Z,0
2017-01-14T00:13:25.825Z,0
2017-01-14T00:14:25.886Z,0
2017-01-14T00:15:25.947Z,0
2017-01-14T00:16:26.000Z,0
2017-01-14T00:17:26.061Z,0
2017-01-14T00:18:26.115Z,0
2017-01-14T00:19:26.161Z,0
2017-01-14T00:20:26.212Z,0
2017-01-14T00:21:26.283Z,0
2017-01-14T00:22:26.335Z,0
2017-01-14T00:23:26.395Z,0
2017-01-14T00:24:26.457Z,0
2017-01-14T00:25:26.506Z,0
2017-01-14T00:26:26.565Z,0
2017-01-14T00:27:26.617Z,0
2017-01-14T00:28:26.672Z,0
2017-01-14T00:29:26.738Z,0
2017-01-14T00:30:26.792Z,0
2017-01-14T00:31:26.842Z,0
2017-01-14T00:32:26.905Z,0
2017-01-14T00:33:26.965Z,0
2017-01-14T00:34:27.022Z,0
2017-01-14T00:35:27.086Z,0
2017-01-14T00:36:27.136Z,0
2017-01-14T00:37:27.202Z,0
2017-01-14T00:38:27.260Z,0
2017-01-14T00:39:27.303Z,0
2017-01-14T00:40:27.360Z,0
2017-01-14T00:41:27.415Z,0
2017-01-14T00:42:27.477Z,0
2017-01-14T00:43:27.542Z,0
2017-01-14T00:44:27.585Z,0
2017-01-14T00:45:27.648Z,0
2017-01-14T00:46:27.710Z,0
2017-01-14T00:47:27.765Z,0
2017-01-14T00:48:27.819Z,0
2017-01-14T00:49:27.871Z,0
2017-01-14T00:50:27.938Z,0
2017-01-14T00:51:28.000Z,0
2017-01-14T00:52:28.053Z,0
2017-01-14T00:53:28.109Z,0
2017-01-14T00:54:28.158Z,0
2017-01-14T00:55:28.211Z,0
2017-01-14T00:56:28.269Z,0
2017-01-14T00:57:28.322Z,0
2017-01-14T00:58:28.385Z,0
2017-01-14T00:59:28.449Z,0
2017-01-14T01:00:28.507Z,0
2017-01-14T01:01:28.560Z,0
2017-01-14T01:02:28.614Z,0
2017-01-14T01:03:28.663Z,0
2017-01-14T01:04:28.730Z,0
2017-01-14T01:05:28.773Z,0
2017-01-14T01:06:28.833Z,0
2017-01-14T01:07:28.894Z,0
2017-01-14T01:08:28.954Z,0
2017-01-14T01:09:29.013Z,0
2017-01-14T01:10:29.070Z,0
2017-01-14T01:11:29.124Z,0
2017-01-14T01:12:29.183Z,0
2017-01-14T01:13:29.239Z,0
2017-01-14T01:14:29.300Z,0
2017-01-14T01:15:29.355Z,0
2017-01-14T01:16:29.415Z,0
2017-01-14T01:17:29.460Z,0
2017-01-14T01:18:29.524Z,0
2017-01-14T01:19:29.583Z,0
2017-01-14T01:20:29.636Z,0
2017-01-14T01:21:29.692Z,0
2017-01-14T01:22:29.740Z,0
2017-01-14T01:23:29.805Z,0
2017-01-14T01:24:29.867Z,0
2017-01-14T01:25:29.920Z,0
2017-01-14T01:26:29.982Z,0
2017-01-14T01:27:30.042Z,0
2017-01-14T01:28:30.093Z,0
2017-01-14T01:29:30.150Z,0
2017-01-14T01:30:30.218Z,0
2017-01-14T01:31:30.264Z,0
2017-01-14T01:32:30.312Z,0
2017-01-14T01:33:30.376Z,0
2017-01-14T01:34:30.457Z,0
2017-01-14T01:35:30.490Z,0
2017-01-14T01:36:30.544Z,0
2017-01-14T01:37:30.658Z,0
2017-01-14T01:38:30.655Z,0
2017-01-14T01:39:30.715Z,0
2017-01-14T01:40:30.771Z,0
2017-01-14T01:41:30.832Z,0
2017-01-14T01:42:30.888Z,0
2017-01-14T01:43:30.939Z,0
2017-01-14T01:44:30.988Z,0
2017-01-14T01:45:31.062Z,0
2017-01-14T01:46:31.108Z,0
2017-01-14T01:47:31.160Z,0
2017-01-14T01:48:31.217Z,0
2017-01-14T01:49:31.283Z,0
2017-01-14T01:50:31.335Z,0
2017-01-14T01:51:31.393Z,0
2017-01-14T01:52:31.455Z,0
2017-01-14T01:53:31.515Z,0
2017-01-14T01:54:31.560Z,0
2017-01-14T01:55:31.625Z,0
2017-01-14T01:56:31.675Z,0
2017-01-14T01:57:31.736Z,0
2017-01-14T01:58:31.799Z,0
2017-01-14T01:59:31.843Z,0
2017-01-14T02:00:31.937Z,0
2017-01-14T02:01:31.967Z,0
2017-01-14T02:02:32.024Z,0
2017-01-14T02:03:32.091Z,0
2017-01-14T02:04:32.128Z,0
2017-01-14T02:05:32.200Z,0
2017-01-14T02:06:32.250Z,0
2017-01-14T02:07:32.307Z,0
2017-01-14T02:08:32.372Z,0
2017-01-14T02:09:32.426Z,0
2017-01-14T02:10:32.478Z,0
2017-01-14T02:11:32.534Z,0
2017-01-14T02:12:32.595Z,0
2017-01-14T02:13:32.664Z,0
2017-01-14T02:14:32.708Z,0
2017-01-14T02:15:32.767Z,0
2017-01-14T02:16:32.819Z,0
2017-01-14T02:17:32.867Z,0
2017-01-14T02:18:32.948Z,0
2017-01-14T02:19:32.996Z,0
2017-01-14T02:20:33.056Z,0
2017-01-14T02:21:33.108Z,0
2017-01-14T02:22:33.171Z,0
2017-01-14T02:23:33.210Z,0
2017-01-14T02:24:33.280Z,0
2017-01-14T02:25:33.359Z,0
2017-01-14T02:26:33.379Z,0
2017-01-14T02:27:33.445Z,0
2017-01-14T02:28:33.491Z,0
2017-01-14T02:29:33.561Z,0
2017-01-14T02:30:33.620Z,0
2017-01-14T02:31:33.667Z,0
2017-01-14T02:32:33.720Z,0
2017-01-14T02:33:33.776Z,0
2017-01-14T02:34:33.849Z,0
2017-01-14T02:35:33.902Z,0
2017-01-14T02:36:33.951Z,0
2017-01-14T02:37:34.012Z,0
2017-01-14T02:38:34.065Z,0
2017-01-14T02:39:34.116Z,0
2017-01-14T02:40:34.173Z,0
2017-01-14T02:41:34.229Z,0
2017-01-14T02:42:34.288Z,0
2017-01-14T02:43:34.334Z,0
2017-01-14T02:44:34.402Z,0
2017-01-14T02:45:34.458Z,0
2017-01-14T02:46:34.506Z,0
2017-01-14T02:47:34.566Z,0
2017-01-14T02:48:34.619Z,0
2017-01-14T02:49:34.677Z,0
2017-01-14T02:50:34.927Z,0
2017-01-14T02:51:34.794Z,0
2017-01-14T02:52:34.932Z,0
2017-01-14T02:53:34.887Z,0
2017-01-14T02:54:34.946Z,0
2017-01-14T02:55:35.003Z,0
2017-01-14T02:56:35.068Z,0
2017-01-14T02:57:35.116Z,0
2017-01-14T02:58:35.179Z,0
2017-01-14T02:59:35.227Z,0
2017-01-14T03:00:35.282Z,0
2017-01-14T03:01:35.346Z,0
2017-01-14T03:02:35.384Z,0
2017-01-14T03:03:35.457Z,0
2017-01-14T03:04:35.512Z,0
2017-01-14T03:05:35.564Z,0
2017-01-14T03:06:35.617Z,0
2017-01-14T03:07:35.677Z,0
2017-01-14T03:08:35.727Z,0
2017-01-14T03:09:35.795Z,0
2017-01-14T03:10:35.845Z,0
2017-01-14T03:11:35.902Z,0
2017-01-14T03:12:35.962Z,0
2017-01-14T03:13:36.018Z,0
2017-01-14T03:14:36.074Z,0
2017-01-14T03:15:36.130Z,0
2017-01-14T03:16:36.180Z,0
2017-01-14T03:17:36.235Z,0
2017-01-14T03:18:36.300Z,0
2017-01-14T03:19:36.357Z,0
2017-01-14T03:20:36.405Z,0
2017-01-14T03:21:36.470Z,0
2017-01-14T03:22:36.528Z,0
2017-01-14T03:23:36.581Z,0
2017-01-14T03:24:36.639Z,0
2017-01-14T03:25:36.693Z,0
2017-01-14T03:26:36.762Z,0
2017-01-14T03:27:36.821Z,0
2017-01-14T03:28:36.868Z,0
2017-01-14T03:29:36.931Z,0
2017-01-14T03:30:36.979Z,0
2017-01-14T03:31:37.035Z,0
2017-01-14T03:32:37.096Z,0
2017-01-14T03:33:37.153Z,0
2017-01-14T03:34:37.222Z,0
2017-01-14T03:35:37.267Z,0
2017-01-14T03:36:37.313Z,0
2017-01-14T03:37:37.381Z,0
2017-01-14T03:38:37.450Z,0
2017-01-14T03:39:37.493Z,0
2017-01-14T03:40:37.563Z,0
2017-01-14T03:41:37.611Z,0
2017-01-14T03:42:37.666Z,0
2017-01-14T03:43:37.725Z,0
2017-01-14T03:44:37.785Z,0
2017-01-14T03:45:37.840Z,0
2017-01-14T03:46:37.902Z,0
2017-01-14T03:47:37.958Z,0
2017-01-14T03:48:38.003Z,0
2017-01-14T03:49:38.061Z,0
2017-01-14T03:50:38.121Z,0
2017-01-14T03:51:38.184Z,0
2017-01-14T03:52:38.234Z,0
2017-01-14T03:53:38.286Z,0
2017-01-14T03:54:38.344Z,0
2017-01-14T03:55:38.409Z,0
2017-01-14T03:56:38.462Z,0
2017-01-14T03:57:38.523Z,0
2017-01-14T03:58:38.580Z,0
2017-01-14T03:59:38.624Z,0
2017-01-14T04:00:38.685Z,0
2017-01-14T04:01:38.748Z,0
2017-01-14T04:02:38.792Z,0
2017-01-14T04:03:38.861Z,0
2017-01-14T04:04:38.907Z,0
2017-01-14T04:05:38.962Z,0
2017-01-14T04:06:39.015Z,0
2017-01-14T04:07:39.071Z,0
2017-01-14T04:08:39.136Z,0
2017-01-14T04:09:39.187Z,0
2017-01-14T04:10:39.242Z,0
2017-01-14T04:11:39.303Z,0
2017-01-14T04:12:39.361Z,0
2017-01-14T04:13:39.426Z,0
2017-01-14T04:14:39.481Z,0
2017-01-14T04:15:39.529Z,0
2017-01-14T04:16:39.595Z,0
2017-01-14T04:17:39.650Z,0
2017-01-14T04:18:39.697Z,0
2017-01-14T04:19:39.755Z,0
2017-01-14T04:20:39.819Z,0
2017-01-14T04:21:39.867Z,0
2017-01-14T04:22:39.935Z,0
2017-01-14T04:23:39.993Z,0
2017-01-14T04:24:40.038Z,0
2017-01-14T04:25:40.478Z,0
2017-01-14T04:26:40.534Z,0
2017-01-14T04:27:40.203Z,0
2017-01-14T04:28:40.261Z,0
2017-01-14T04:29:40.324Z,0
2017-01-14T04:30:40.364Z,0
2017-01-14T04:31:40.418Z,0
2017-01-14T04:32:40.485Z,0
2017-01-14T04:33:40.539Z,0
2017-01-14T04:34:40.603Z,0
2017-01-14T04:35:40.682Z,0
2017-01-14T04:36:40.705Z,0
2017-01-14T04:37:40.762Z,0
2017-01-14T04:38:40.828Z,0
2017-01-14T04:39:40.882Z,0
2017-01-14T04:40:40.932Z,0
2017-01-14T04:41:40.994Z,0
2017-01-14T04:42:41.042Z,0
2017-01-14T04:43:41.106Z,0
2017-01-14T04:44:41.150Z,0
2017-01-14T04:45:41.210Z,0
2017-01-14T04:46:41.264Z,0
2017-01-14T04:47:41.333Z,0
2017-01-14T04:48:41.379Z,0
2017-01-14T04:49:41.428Z,0
2017-01-14T04:50:41.500Z,0
2017-01-14T04:51:41.543Z,0
2017-01-14T04:52:41.609Z,0
2017-01-14T04:53:41.655Z,0
2017-01-14T04:54:41.726Z,0
2017-01-14T04:55:41.778Z,0
2017-01-14T04:56:41.832Z,0
2017-01-14T04:57:41.895Z,0
2017-01-14T04:58:41.946Z,0
2017-01-14T04:59:42.005Z,0
2017-01-14T05:00:42.061Z,0
2017-01-14T05:01:42.123Z,0
2017-01-14T05:02:42.175Z,0
2017-01-14T05:03:42.236Z,0
2017-01-14T05:04:42.294Z,0
2017-01-14T05:05:42.347Z,0
2017-01-14T05:06:42.397Z,0
2017-01-14T05:07:42.456Z,0
2017-01-14T05:08:42.517Z,0
2017-01-14T05:09:42.608Z,0
2017-01-14T05:10:42.637Z,0
2017-01-14T05:11:42.692Z,0
2017-01-14T05:12:42.745Z,0
2017-01-14T05:13:42.804Z,0
2017-01-14T05:14:42.864Z,0
2017-01-14T05:15:42.908Z,0
2017-01-14T05:16:42.974Z,0
2017-01-14T05:17:43.035Z,0
2017-01-14T05:18:43.097Z,0
2017-01-14T05:19:43.138Z,0
2017-01-14T05:20:43.201Z,0
2017-01-14T05:21:43.259Z,0
2017-01-14T05:22:43.315Z,0
2017-01-14T05:23:43.379Z,0
2017-01-14T05:24:43.426Z,0
2017-01-14T05:25:43.490Z,0
2017-01-14T05:26:43.541Z,0
2017-01-14T05:27:43.637Z,0
2017-01-14T05:28:43.668Z,0
2017-01-14T05:29:43.726Z,0
2017-01-14T05:30:43.783Z,0
2017-01-14T05:31:43.832Z,0
2017-01-14T05:32:43.890Z,0
2017-01-14T05:33:43.940Z,0
2017-01-14T05:34:44.005Z,0
2017-01-14T05:35:44.051Z,0
2017-01-14T05:36:44.116Z,0
2017-01-14T05:37:44.170Z,0
2017-01-14T05:38:44.230Z,0
2017-01-14T05:39:44.285Z,0
2017-01-14T05:40:44.343Z,0
2017-01-14T05:41:44.406Z,0
2017-01-14T05:42:44.469Z,0
2017-01-14T05:43:44.522Z,0
2017-01-14T05:44:44.581Z,0
2017-01-14T05:45:44.622Z,0
2017-01-14T05:46:44.682Z,0
2017-01-14T05:47:44.752Z,0
2017-01-14T05:48:44.789Z,0
2017-01-14T05:49:44.856Z,0
2017-01-14T05:50:44.920Z,0
2017-01-14T05:51:44.968Z,0
2017-01-14T05:52:45.020Z,0
2017-01-14T05:53:45.081Z,0
2017-01-14T05:54:45.158Z,0
2017-01-14T05:55:45.190Z,0
2017-01-14T05:56:45.247Z,0
2017-01-14T05:57:45.306Z,0
2017-01-14T05:58:45.360Z,0
2017-01-14T05:59:45.416Z,0
2017-01-14T06:00:45.476Z,0
2017-01-14T06:01:45.531Z,0
2017-01-14T06:02:45.585Z,0
2017-01-14T06:03:45.646Z,0
2017-01-14T06:04:45.706Z,0
2017-01-14T06:05:45.757Z,0
2017-01-14T06:06:45.811Z,0
2017-01-14T06:07:45.899Z,0
2017-01-14T06:08:45.917Z,0
2017-01-14T06:09:45.983Z,0
2017-01-14T06:10:46.040Z,0
2017-01-14T06:11:46.103Z,0
2017-01-14T06:12:46.146Z,0
2017-01-14T06:13:46.208Z,0
2017-01-14T06:14:46.267Z,0
2017-01-14T06:15:46.320Z,0
2017-01-14T06:16:46.380Z,0
2017-01-14T06:17:46.443Z,0
2017-01-14T06:18:46.486Z,0
2017-01-14T06:19:46.549Z,0
2017-01-14T06:20:46.608Z,0
2017-01-14T06:21:46.664Z,0
2017-01-14T06:22:46.721Z,0
2017-01-14T06:23:46.773Z,0
2017-01-14T06:24:46.858Z,0
2017-01-14T06:25:47.092Z,0
2017-01-14T06:26:46.953Z,0
2017-01-14T06:27:46.995Z,0
2017-01-14T06:28:47.059Z,0
2017-01-14T06:29:47.111Z,0
2017-01-14T06:30:47.161Z,0
2017-01-14T06:31:47.216Z,0
2017-01-14T06:32:47.278Z,0
2017-01-14T06:33:47.345Z,0
2017-01-14T06:34:47.403Z,0
2017-01-14T06:35:47.450Z,0
2017-01-14T06:36:47.501Z,0
2017-01-14T06:37:47.564Z,0
2017-01-14T06:38:47.616Z,0
2017-01-14T06:39:47.678Z,0
2017-01-14T06:40:47.758Z,0
2017-01-14T06:41:47.786Z,0
2017-01-14T06:42:47.850Z,0
2017-01-14T06:43:47.908Z,0
2017-01-14T06:44:47.944Z,0
2017-01-14T06:45:48.002Z,0
2017-01-14T06:46:48.067Z,4
2017-01-14T06:47:48.131Z,4
2017-01-14T06:48:48.183Z,4
2017-01-14T06:49:48.241Z,4
2017-01-14T06:50:48.294Z,4
2017-01-14T06:51:48.547Z,4
2017-01-14T06:52:48.402Z,4
2017-01-14T06:53:48.464Z,4
2017-01-14T06:54:48.527Z,4
2017-01-14T06:55:48.593Z,4
2017-01-14T06:56:48.638Z,4
2017-01-14T06:57:48.689Z,4
2017-01-14T06:58:48.743Z,8
2017-01-14T06:59:48.802Z,8
2017-01-14T07:00:48.855Z,8
2017-01-14T07:01:48.903Z,8
2017-01-14T07:02:48.957Z,12
2017-01-14T07:03:49.015Z,8
2017-01-14T07:04:49.078Z,8
2017-01-14T07:05:49.136Z,12
2017-01-14T07:06:49.192Z,12
2017-01-14T07:07:49.247Z,12
2017-01-14T07:08:49.308Z,16
2017-01-14T07:09:49.365Z,12
2017-01-14T07:10:49.409Z,12
2017-01-14T07:11:49.474Z,16
2017-01-14T07:12:49.522Z,16
2017-01-14T07:13:49.587Z,20
2017-01-14T07:14:49.633Z,16
2017-01-14T07:15:49.698Z,16
2017-01-14T07:16:49.970Z,20
2017-01-14T07:17:50.015Z,20
2017-01-14T07:18:49.868Z,16
2017-01-14T07:19:49.924Z,20
2017-01-14T07:20:49.988Z,20
2017-01-14T07:21:50.037Z,24
2017-01-14T07:22:50.092Z,24
2017-01-14T07:23:50.148Z,24
2017-01-14T07:24:50.205Z,24
2017-01-14T07:25:50.263Z,24
2017-01-14T07:26:50.329Z,24
2017-01-14T07:27:50.375Z,28
2017-01-14T07:28:50.440Z,28
2017-01-14T07:29:50.487Z,28
2017-01-14T07:30:50.537Z,28
2017-01-14T07:31:50.602Z,32
2017-01-14T07:32:51.036Z,32
2017-01-14T07:33:50.714Z,32
2017-01-14T07:34:50.763Z,32
2017-01-14T07:35:50.832Z,36
2017-01-14T07:36:50.894Z,36
2017-01-14T07:37:50.938Z,32
2017-01-14T07:38:51.004Z,32
2017-01-14T07:39:51.047Z,36
2017-01-14T07:40:51.121Z,32
2017-01-14T07:41:51.172Z,32
2017-01-14T07:42:51.234Z,32
2017-01-14T07:43:51.482Z,36
2017-01-14T07:44:51.332Z,36
2017-01-14T07:45:51.402Z,40
2017-01-14T07:46:51.461Z,44
2017-01-14T07:47:51.520Z,48
2017-01-14T07:48:51.570Z,48
2017-01-14T07:49:51.621Z,52
2017-01-14T07:50:51.688Z,52
2017-01-14T07:51:51.726Z,56
2017-01-14T07:52:51.795Z,60
2017-01-14T07:53:51.860Z,64
2017-01-14T07:54:51.907Z,68
2017-01-14T07:55:51.958Z,76
2017-01-14T07:56:52.043Z,84
2017-01-14T07:57:52.075Z,88
2017-01-14T07:58:52.132Z,92
2017-01-14T07:59:52.182Z,100
2017-01-14T08:00:52.253Z,100
2017-01-14T08:01:52.303Z,100
2017-01-14T08:02:52.350Z,92
2017-01-14T08:03:52.424Z,88
2017-01-14T08:04:52.473Z,80
2017-01-14T08:05:52.523Z,80
2017-01-14T08:06:52.583Z,80
2017-01-14T08:07:52.638Z,88
2017-01-14T08:08:52.694Z,92
2017-01-14T08:09:52.753Z,96
2017-01-14T08:10:52.816Z,96
2017-01-14T08:11:52.871Z,100
2017-01-14T08:12:52.935Z,100
2017-01-14T08:13:52.970Z,100
2017-01-14T08:14:53.028Z,100
2017-01-14T08:15:53.085Z,96
2017-01-14T08:16:53.548Z,96
2017-01-14T08:17:53.206Z,104
2017-01-14T08:18:53.250Z,108
2017-01-14T08:19:53.307Z,120
2017-01-14T08:20:53.361Z,124
2017-01-14T08:21:53.413Z,124
2017-01-14T08:22:53.476Z,120
2017-01-14T08:23:53.528Z,128
2017-01-14T08:24:53.592Z,136
2017-01-14T08:25:53.647Z,136
2017-01-14T08:26:53.699Z,136
2017-01-14T08:27:53.765Z,148
2017-01-14T08:28:53.817Z,160
2017-01-14T08:29:53.859Z,172
2017-01-14T08:30:53.926Z,172
2017-01-14T08:31:53.970Z,180
2017-01-14T08:32:54.034Z,188
2017-01-14T08:33:54.096Z,196
2017-01-14T08:34:54.134Z,204
2017-01-14T08:35:54.207Z,204
2017-01-14T08:36:54.266Z,200
2017-01-14T08:37:54.315Z,200
2017-01-14T08:38:54.365Z,204
2017-01-14T08:39:54.429Z,196
2017-01-14T08:40:54.470Z,188
2017-01-14T08:41:54.522Z,180
2017-01-14T08:42:54.584Z,180
2017-01-14T08:43:54.647Z,192
2017-01-14T08:44:54.693Z,208
2017-01-14T08:45:54.757Z,212
2017-01-14T08:46:54.799Z,208
2017-01-14T08:47:54.868Z,196
2017-01-14T08:48:54.927Z,180
2017-01-14T08:49:54.985Z,172
2017-01-14T08:50:55.038Z,168
2017-01-14T08:51:55.092Z,172
2017-01-14T08:52:55.146Z,180
2017-01-14T08:53:55.199Z,196
2017-01-14T08:54:55.256Z,216
2017-01-14T08:55:55.311Z,236
2017-01-14T08:56:55.369Z,260
2017-01-14T08:57:55.423Z,256
2017-01-14T08:58:55.482Z,244
2017-01-14T08:59:55.540Z,240
2017-01-14T09:00:55.590Z,228
2017-01-14T09:01:55.649Z,228
2017-01-14T09:02:55.700Z,224
2017-01-14T09:03:55.746Z,232
2017-01-14T09:04:55.823Z,240
2017-01-14T09:05:55.873Z,252
2017-01-14T09:06:55.921Z,252
2017-01-14T09:07:55.980Z,244
2017-01-14T09:08:56.034Z,232
2017-01-14T09:09:56.088Z,224
2017-01-14T09:10:56.145Z,216
2017-01-14T09:11:56.196Z,208
2017-01-14T09:12:56.264Z,204
2017-01-14T09:13:56.313Z,208
2017-01-14T09:14:56.360Z,216
2017-01-14T09:15:56.424Z,216
2017-01-14T09:16:56.473Z,224
2017-01-14T09:17:56.528Z,232
2017-01-14T09:18:56.608Z,240
2017-01-14T09:19:56.644Z,248
2017-01-14T09:20:56.710Z,248
2017-01-14T09:21:56.759Z,256
2017-01-14T09:22:56.811Z,264
2017-01-14T09:23:56.867Z,288
2017-01-14T09:24:56.922Z,300
2017-01-14T09:25:56.976Z,304
2017-01-14T09:26:57.039Z,304
2017-01-14T09:27:57.090Z,300
2017-01-14T09:28:57.141Z,296
2017-01-14T09:29:57.206Z,296
2017-01-14T09:30:57.261Z,292
2017-01-14T09:31:57.312Z,292
2017-01-14T09:32:57.378Z,292
2017-01-14T09:33:57.425Z,288
2017-01-14T09:34:57.486Z,292
2017-01-14T09:35:57.546Z,296
2017-01-14T09:36:57.587Z,320
2017-01-14T09:37:57.647Z,336
2017-01-14T09:38:57.706Z,348
2017-01-14T09:39:57.763Z,352
2017-01-14T09:40:57.824Z,360
2017-01-14T09:41:57.880Z,364
2017-01-14T09:42:57.956Z,368
2017-01-14T09:43:57.992Z,364
2017-01-14T09:44:58.044Z,360
2017-01-14T09:45:58.099Z,372
2017-01-14T09:46:58.148Z,376
2017-01-14T09:47:58.207Z,380
2017-01-14T09:48:58.262Z,384
2017-01-14T09:49:58.321Z,392
2017-01-14T09:50:58.383Z,392
2017-01-14T09:51:58.441Z,400
2017-01-14T09:52:58.484Z,396
2017-01-14T09:53:58.540Z,400
2017-01-14T09:54:58.594Z,408
2017-01-14T09:55:58.667Z,420
2017-01-14T09:56:58.712Z,420
2017-01-14T09:57:58.770Z,420
2017-01-14T09:58:58.851Z,408
2017-01-14T09:59:58.874Z,396
2017-01-14T10:00:58.943Z,388
2017-01-14T10:01:58.992Z,396
2017-01-14T10:02:59.038Z,400
2017-01-14T10:03:59.109Z,412
2017-01-14T10:04:59.195Z,424
2017-01-14T10:05:59.213Z,436
2017-01-14T10:06:59.274Z,444
2017-01-14T10:07:59.327Z,444
2017-01-14T10:08:59.384Z,432
2017-01-14T10:09:59.443Z,424
2017-01-14T10:10:59.506Z,416
2017-01-14T10:11:59.558Z,404
2017-01-14T10:12:59.604Z,388
2017-01-14T10:13:59.666Z,380
2017-01-14T10:14:59.712Z,372
2017-01-14T10:15:59.777Z,372
2017-01-14T10:16:59.838Z,368
2017-01-14T10:17:59.892Z,368
2017-01-14T10:18:59.951Z,376
2017-01-14T10:20:00.009Z,392
2017-01-14T10:21:00.063Z,408
2017-01-14T10:22:00.111Z,416
2017-01-14T10:23:00.183Z,420
2017-01-14T10:24:00.219Z,420
2017-01-14T10:25:00.288Z,420
2017-01-14T10:26:00.338Z,416
2017-01-14T10:27:00.398Z,420
2017-01-14T10:28:00.453Z,452
2017-01-14T10:29:00.507Z,488
2017-01-14T10:30:00.559Z,508
2017-01-14T10:31:00.654Z,528
2017-01-14T10:32:00.679Z,536
2017-01-14T10:33:00.734Z,544
2017-01-14T10:34:00.790Z,556
2017-01-14T10:35:00.854Z,540
2017-01-14T10:36:00.922Z,524
2017-01-14T10:37:00.950Z,500
2017-01-14T10:38:01.003Z,496
2017-01-14T10:39:01.060Z,504
2017-01-14T10:40:01.122Z,488
2017-01-14T10:41:01.183Z,488
2017-01-14T10:42:01.238Z,480
2017-01-14T10:43:01.295Z,488
2017-01-14T10:44:01.351Z,480
2017-01-14T10:45:01.405Z,460
2017-01-14T10:46:01.468Z,448
2017-01-14T10:47:01.521Z,440
2017-01-14T10:48:01.579Z,456
2017-01-14T10:49:01.628Z,480
2017-01-14T10:50:01.695Z,504
2017-01-14T10:51:01.736Z,524
2017-01-14T10:52:01.795Z,540
2017-01-14T10:53:01.854Z,548
2017-01-14T10:54:01.913Z,552
2017-01-14T10:55:01.963Z,548
2017-01-14T10:56:02.044Z,548
2017-01-14T10:57:02.088Z,548
2017-01-14T10:58:02.129Z,556
2017-01-14T10:59:02.187Z,552
2017-01-14T11:00:02.864Z,548
2017-01-14T11:01:02.306Z,540
2017-01-14T11:02:02.371Z,532
2017-01-14T11:03:02.411Z,520
2017-01-14T11:04:02.482Z,500
2017-01-14T11:05:02.538Z,488
2017-01-14T11:06:02.587Z,480
2017-01-14T11:07:02.655Z,480
2017-01-14T11:08:02.701Z,484
2017-01-14T11:09:02.797Z,496
2017-01-14T11:10:02.817Z,504
2017-01-14T11:11:02.901Z,516
2017-01-14T11:12:02.922Z,520
2017-01-14T11:13:03.030Z,528
2017-01-14T11:14:03.050Z,520
2017-01-14T11:15:03.477Z,508
2017-01-14T11:16:03.540Z,488
2017-01-14T11:17:03.203Z,472
2017-01-14T11:18:03.271Z,480
2017-01-14T11:19:03.328Z,496
2017-01-14T11:20:03.411Z,504
2017-01-14T11:21:03.439Z,524
2017-01-14T11:22:03.496Z,536
2017-01-14T11:23:03.551Z,548
2017-01-14T11:24:03.608Z,552
2017-01-14T11:25:04.061Z,552
2017-01-14T11:26:03.724Z,556
2017-01-14T11:27:03.786Z,556
2017-01-14T11:28:03.831Z,568
2017-01-14T11:29:03.898Z,564
2017-01-14T11:30:03.955Z,568
2017-01-14T11:31:04.011Z,560
2017-01-14T11:32:04.455Z,556
2017-01-14T11:33:04.126Z,572
2017-01-14T11:34:04.185Z,572
2017-01-14T11:35:04.235Z,588
2017-01-14T11:36:04.295Z,608
2017-01-14T11:37:04.350Z,632
2017-01-14T11:38:04.397Z,652
2017-01-14T11:39:04.454Z,672
2017-01-14T11:40:04.527Z,700
2017-01-14T11:41:04.582Z,732
2017-01-14T11:42:04.637Z,764
2017-01-14T11:43:04.691Z,788
2017-01-14T11:44:04.776Z,816
2017-01-14T11:45:04.804Z,808
2017-01-14T11:46:05.249Z,780
2017-01-14T11:47:04.931Z,768
2017-01-14T11:48:04.980Z,756
2017-01-14T11:49:05.044Z,748
2017-01-14T11:50:05.099Z,756
2017-01-14T11:51:05.141Z,772
2017-01-14T11:52:05.203Z,792
2017-01-14T11:53:05.264Z,800
2017-01-14T11:54:05.314Z,788
2017-01-14T11:55:05.575Z,768
2017-01-14T11:56:05.439Z,752
2017-01-14T11:57:05.493Z,732
2017-01-14T11:58:05.552Z,732
2017-01-14T11:59:05.603Z,724
2017-01-14T12:00:05.671Z,716
2017-01-14T12:01:05.722Z,724
2017-01-14T12:02:06.171Z,744
2017-01-14T12:03:05.834Z,768
2017-01-14T12:04:05.886Z,788
2017-01-14T12:05:05.943Z,788
2017-01-14T12:06:06.005Z,784
2017-01-14T12:07:06.447Z,792
2017-01-14T12:08:06.122Z,796
2017-01-14T12:09:06.191Z,784
2017-01-14T12:10:06.234Z,760
2017-01-14T12:11:06.288Z,740
2017-01-14T12:12:06.345Z,732
2017-01-14T12:13:06.408Z,744
2017-01-14T12:14:06.474Z,744
2017-01-14T12:15:06.523Z,772
2017-01-14T12:16:06.588Z,796
2017-01-14T12:17:06.638Z,812
2017-01-14T12:18:06.690Z,836
2017-01-14T12:19:06.752Z,860
2017-01-14T12:20:06.819Z,876
2017-01-14T12:21:06.879Z,900
2017-01-14T12:22:06.929Z,924
2017-01-14T12:23:06.988Z,968
2017-01-14T12:24:07.057Z,1024
2017-01-14T12:25:07.096Z,1020
2017-01-14T12:26:07.141Z,976
2017-01-14T12:27:07.207Z,928
2017-01-14T12:28:07.258Z,880
2017-01-14T12:29:07.309Z,856
2017-01-14T12:30:07.366Z,852
2017-01-14T12:31:07.433Z,868
2017-01-14T12:32:07.492Z,880
2017-01-14T12:33:07.542Z,884
2017-01-14T12:34:07.610Z,904
2017-01-14T12:35:07.661Z,912
2017-01-14T12:36:07.721Z,904
2017-01-14T12:37:07.774Z,884
2017-01-14T12:38:07.839Z,900
2017-01-14T12:39:07.890Z,952
2017-01-14T12:40:07.952Z,984
2017-01-14T12:41:08.003Z,968
2017-01-14T12:42:08.072Z,912
2017-01-14T12:43:08.116Z,836
2017-01-14T12:44:08.181Z,772
2017-01-14T12:45:08.229Z,756
2017-01-14T12:46:08.288Z,788
2017-01-14T12:47:08.339Z,852
2017-01-14T12:48:08.400Z,932
2017-01-14T12:49:08.462Z,1012
2017-01-14T12:50:08.527Z,1092
2017-01-14T12:51:08.570Z,1136
2017-01-14T12:52:08.625Z,1140
2017-01-14T12:53:08.686Z,1108
2017-01-14T12:54:08.745Z,1092
2017-01-14T12:55:08.807Z,1100
2017-01-14T12:56:08.857Z,1128
2017-01-14T12:57:09.307Z,1152
2017-01-14T12:58:08.970Z,1144
2017-01-14T12:59:09.026Z,1148
2017-01-14T13:00:09.085Z,1172
2017-01-14T13:01:09.136Z,1184
2017-01-14T13:02:09.189Z,1172
2017-01-14T13:03:09.253Z,1156
2017-01-14T13:04:09.322Z,1144
2017-01-14T13:05:09.362Z,1140
2017-01-14T13:06:09.434Z,1132
2017-01-14T13:07:09.490Z,1112
2017-01-14T13:08:09.549Z,1092
2017-01-14T13:09:09.600Z,1080
2017-01-14T13:10:09.658Z,1064
2017-01-14T13:11:09.737Z,1040
2017-01-14T13:12:09.769Z,996
2017-01-14T13:13:09.830Z,972
2017-01-14T13:14:09.882Z,984
2017-01-14T13:15:09.936Z,1032
2017-01-14T13:16:09.987Z,1072
2017-01-14T13:17:10.054Z,1084
2017-01-14T13:18:10.106Z,1060
2017-01-14T13:19:10.164Z,1016
2017-01-14T13:20:10.228Z,968
2017-01-14T13:21:10.281Z,932
2017-01-14T13:22:10.341Z,924
2017-01-14T13:23:10.404Z,936
2017-01-14T13:24:10.469Z,940
2017-01-14T13:25:10.509Z,940
2017-01-14T13:26:10.561Z,932
2017-01-14T13:27:10.638Z,916
2017-01-14T13:28:10.683Z,888
2017-01-14T13:29:10.734Z,860
2017-01-14T13:30:10.801Z,844
2017-01-14T13:31:10.863Z,824
2017-01-14T13:32:10.910Z,792
2017-01-14T13:33:10.979Z,804
2017-01-14T13:34:11.035Z,820
2017-01-14T13:35:11.084Z,860
2017-01-14T13:36:11.152Z,892
2017-01-14T13:37:11.196Z,896
2017-01-14T13:38:11.260Z,868
2017-01-14T13:39:11.321Z,828
2017-01-14T13:40:11.382Z,796
2017-01-14T13:41:11.439Z,756
2017-01-14T13:42:11.579Z,728
2017-01-14T13:43:11.552Z,712
2017-01-14T13:44:11.998Z,708
2017-01-14T13:45:11.671Z,700
2017-01-14T13:46:11.721Z,680
2017-01-14T13:47:11.920Z,660
2017-01-14T13:48:11.829Z,636
2017-01-14T13:49:11.882Z,624
2017-01-14T13:50:11.944Z,616
2017-01-14T13:51:12.012Z,616
2017-01-14T13:52:12.063Z,616
2017-01-14T13:53:12.115Z,604
2017-01-14T13:54:12.187Z,584
2017-01-14T13:55:12.225Z,584
2017-01-14T13:56:12.297Z,572
2017-01-14T13:57:12.345Z,564
2017-01-14T13:58:12.409Z,560
2017-01-14T13:59:12.468Z,548
2017-01-14T14:00:12.535Z,540
2017-01-14T14:01:12.582Z,528
2017-01-14T14:02:12.641Z,528
2017-01-14T14:03:12.694Z,532
2017-01-14T14:04:12.752Z,528
2017-01-14T14:05:12.812Z,512
2017-01-14T14:06:12.882Z,492
2017-01-14T14:07:12.932Z,476
2017-01-14T14:08:12.991Z,472
2017-01-14T14:09:13.425Z,468
2017-01-14T14:10:13.110Z,468
2017-01-14T14:11:13.156Z,476
2017-01-14T14:12:13.231Z,484
2017-01-14T14:13:13.270Z,500
2017-01-14T14:14:13.328Z,508
2017-01-14T14:15:13.780Z,516
2017-01-14T14:16:13.447Z,508
2017-01-14T14:17:13.510Z,472